Time;durP1;ratioP1;P1;durP2;ratioP2;P2;SDS_P1;SDS_P2;PMS_P1;PMS_P2;Temp;Humidity;BMP_temperature;BMP_pressure;BME280_temperature;BME280_humidity;BME280_pressure;Samples;Min_cycle;Max_cycle;Signal;HPM_P1;HPM_P2
2022/08/29 00:01:22;;;;;;;5.80;2.97;;;;;;;26.51;55.36;100985.97;4994614;28;20042;-74
2022/08/29 00:03:49;;;;;;;4.22;2.78;;;;;;;26.51;55.59;100993.28;5011916;28;20045;-75
2022/08/29 00:06:17;;;;;;;3.47;3.13;;;;;;;26.52;55.55;101000.38;5013660;28;20053;-74
2022/08/29 00:08:44;;;;;;;3.47;2.90;;;;;;;26.52;55.26;101001.22;5014052;28;20053;-74
2022/08/29 00:11:11;;;;;;;3.15;2.85;;;;;;;26.52;55.49;101001.22;5013630;28;20057;-74
2022/08/29 00:13:39;;;;;;;4.00;3.13;;;;;;;26.52;55.23;101001.22;5013564;28;20116;-74
2022/08/29 00:16:07;;;;;;;3.30;2.72;;;;;;;26.53;55.27;101010.22;5013990;28;20042;-74
2022/08/29 00:18:35;;;;;;;3.50;3.00;;;;;;;26.54;55.16;101011.94;5013355;28;20054;-74
2022/08/29 00:21:04;;;;;;;4.78;2.90;;;;;;;26.54;55.43;101014.66;5012345;28;20046;-74
2022/08/29 00:23:31;;;;;;;3.90;3.22;;;;;;;26.54;55.18;101020.06;5010153;28;20042;-74
2022/08/29 00:25:59;;;;;;;4.15;3.08;;;;;;;26.54;55.15;101018.19;4994322;28;20039;-73
2022/08/29 00:28:26;;;;;;;3.72;3.17;;;;;;;26.55;55.24;101021.75;4993547;28;20050;-74
2022/08/29 00:30:54;;;;;;;4.20;2.83;;;;;;;26.54;55.44;101014.66;4993912;28;20045;-74
2022/08/29 00:33:21;;;;;;;3.60;3.20;;;;;;;26.54;55.45;101018.19;4993663;28;20050;-74
2022/08/29 00:35:48;;;;;;;3.95;3.08;;;;;;;26.56;55.34;101015.31;5008494;28;20046;-74
2022/08/29 00:38:16;;;;;;;3.50;2.92;;;;;;;26.56;55.40;101018.00;4994214;28;20046;-74
2022/08/29 00:40:48;;;;;;;3.47;2.80;;;;;;;26.55;55.15;101009.03;4991995;28;20050;-74
2022/08/29 00:43:21;;;;;;;3.45;2.53;;;;;;;26.56;55.32;101012.59;4993963;28;20042;-74
2022/08/29 00:46:30;;;;;;;3.38;2.88;;;;;;;26.55;55.19;101014.47;4994034;28;20410;-74
2022/08/29 00:49:07;;;;;;;3.53;2.80;;;;;;;26.57;55.03;101014.28;4992496;28;20046;-74
2022/08/29 00:51:35;;;;;;;6.65;3.35;;;;;;;26.57;55.13;101017.81;4992373;28;20065;-74
2022/08/29 00:54:08;;;;;;;5.05;3.00;;;;;;;26.56;55.09;101018.84;4993963;28;20482;-73
2022/08/29 00:56:36;;;;;;;;;;;;;;;26.56;55.21;101018.84;4993831;28;20406;-74
2022/08/29 00:59:11;;;;;;;4.50;2.95;;;;;;;26.57;55.21;101023.25;4993263;28;19929;-74
2022/08/29 01:01:39;;;;;;;4.72;3.20;;;;;;;26.57;55.35;101031.41;4993944;28;20050;-74
2022/08/29 01:04:07;;;;;;;3.38;2.92;;;;;;;26.57;55.33;101031.41;4993560;28;20057;-74
2022/08/29 01:06:42;;;;;;;3.63;3.15;;;;;;;26.58;55.47;101035.84;5012973;28;20378;-74
2022/08/29 01:09:10;;;;;;;4.22;3.22;;;;;;;26.59;55.25;101028.53;5013231;28;20054;-74
2022/08/29 01:14:26;;;;;;;3.45;3.13;;;;;;;26.59;55.12;101025.81;5013101;28;20046;-74
2022/08/29 01:16:57;;;;;;;3.40;2.83;;;;;;;26.59;55.18;101028.53;4994357;28;20054;-74
2022/08/29 01:19:58;;;;;;;3.50;3.20;;;;;;;26.58;55.12;101018.69;4993447;28;20510;-74
2022/08/29 01:22:53;;;;;;;3.85;2.95;;;;;;;26.60;55.29;101030.22;4992796;28;20058;-74
2022/08/29 01:25:24;;;;;;;3.85;3.03;;;;;;;26.59;55.11;101031.25;5006640;28;20045;-74
2022/08/29 01:28:03;;;;;;;4.53;2.88;;;;;;;26.60;55.10;101027.50;4993231;28;20434;-74
2022/08/29 01:30:31;;;;;;;4.53;3.17;;;;;;;26.61;55.18;101029.19;4993601;28;20057;-74
2022/08/29 01:32:59;;;;;;;3.15;2.85;;;;;;;26.60;55.42;101022.06;4993072;28;20046;-74
2022/08/29 01:35:27;;;;;;;4.35;2.70;;;;;;;26.59;55.05;101026.66;4992997;28;20057;-73
2022/08/29 01:37:55;;;;;;;5.47;3.03;;;;;;;26.60;55.28;101036.50;4993337;28;20072;-73
2022/08/29 01:40:28;;;;;;;3.42;2.33;;;;;;;26.60;55.23;101032.94;4992911;28;20039;-73
2022/08/29 01:42:56;;;;;;;;;;;;;;;26.59;55.09;101034.81;4993403;28;20054;-73
2022/08/29 01:45:23;;;;;;;3.85;3.13;;;;;;;26.60;54.98;101041.94;4993229;28;20304;-73
2022/08/29 01:47:51;;;;;;;4.03;2.63;;;;;;;26.60;55.12;101041.09;4992933;28;20053;-73
2022/08/29 01:50:18;;;;;;;3.40;2.75;;;;;;;26.60;55.19;101039.22;4992780;28;20414;-73
2022/08/29 01:52:45;;;;;;;3.22;2.70;;;;;;;26.61;55.23;101045.47;4992809;28;20051;-73
2022/08/29 01:55:13;;;;;;;3.28;2.53;;;;;;;26.60;55.08;101046.50;4993435;28;20513;-73
2022/08/29 01:57:40;;;;;;;3.95;3.17;;;;;;;26.60;54.98;101041.94;4975446;28;20053;-73
2022/08/29 02:00:10;;;;;;;3.00;2.47;;;;;;;26.60;55.05;101050.06;4993210;28;20058;-73
2022/08/29 02:02:39;;;;;;;3.00;2.70;;;;;;;26.60;55.07;101050.06;4993121;28;20053;-73
2022/08/29 02:05:08;;;;;;;3.78;2.58;;;;;;;26.60;55.00;101041.94;5008211;28;20053;-73
2022/08/29 02:07:36;;;;;;;2.67;2.35;;;;;;;26.61;54.96;101054.47;5013194;28;20049;-73
2022/08/29 02:10:04;;;;;;;3.90;2.97;;;;;;;26.60;55.00;101055.50;5016006;28;20477;-73
2022/08/29 02:12:32;;;;;;;3.72;2.50;;;;;;;26.60;54.80;101054.66;5015723;28;20046;-73
2022/08/29 02:14:59;;;;;;;3.90;2.70;;;;;;;26.61;54.94;101050.91;5016026;28;20053;-73
2022/08/29 02:17:28;;;;;;;3.95;2.72;;;;;;;26.60;54.96;101047.34;5016126;28;20045;-73
2022/08/29 02:19:55;;;;;;;3.03;2.72;;;;;;;26.61;54.98;101053.63;5015768;28;20041;-73
2022/08/29 02:22:23;;;;;;;3.53;2.90;;;;;;;26.61;54.88;101050.91;5016053;28;20060;-73
2022/08/29 02:24:50;;;;;;;3.92;2.60;;;;;;;26.61;54.92;101045.47;5001762;28;20413;-73
2022/08/29 02:27:18;;;;;;;3.22;2.60;;;;;;;26.61;54.84;101040.06;4996278;28;20047;-73
2022/08/29 02:29:45;;;;;;;3.20;2.50;;;;;;;26.61;54.78;101038.19;4995810;28;20061;-73
2022/08/29 02:32:13;;;;;;;3.65;2.85;;;;;;;26.61;54.73;101040.91;4996290;28;20042;-73
2022/08/29 02:34:43;;;;;;;3.58;2.88;;;;;;;26.61;54.83;101038.19;4994436;28;20050;-73
2022/08/29 02:37:15;;;;;;;3.53;3.10;;;;;;;26.60;54.81;101039.22;4995943;28;20054;-74
2022/08/29 02:39:42;;;;;;;6.50;3.10;;;;;;;26.61;54.61;101051.75;4995956;28;20046;-74
2022/08/29 02:42:09;;;;;;;3.33;2.80;;;;;;;26.60;54.34;101044.63;4995772;28;20050;-74
2022/08/29 02:44:37;;;;;;;4.70;2.88;;;;;;;26.59;54.39;101047.53;4995627;28;20053;-74
2022/08/29 02:47:04;;;;;;;3.92;3.30;;;;;;;26.57;54.33;101042.25;4995991;28;20046;-75
2022/08/29 02:49:31;;;;;;;4.18;2.65;;;;;;;26.58;54.21;101049.41;4995304;28;20498;-74
2022/08/29 02:52:01;;;;;;;4.50;2.63;;;;;;;26.57;54.22;101044.13;4995285;28;20047;-74
2022/08/29 02:54:28;;;;;;;6.35;3.13;;;;;;;26.56;54.03;101056.88;4995760;28;20402;-74
2022/08/29 02:56:55;;;;;;;3.25;2.80;;;;;;;26.55;54.31;101052.47;4995326;28;20053;-74
2022/08/29 02:59:23;;;;;;;3.60;2.83;;;;;;;26.55;54.49;101057.91;4995458;28;20046;-75
2022/08/29 03:01:52;;;;;;;3.42;3.03;;;;;;;26.54;54.62;101049.94;4995048;28;20050;-74
2022/08/29 03:04:19;;;;;;;4.13;3.72;;;;;;;26.55;54.72;101044.31;4995182;28;20414;-74
2022/08/29 03:06:48;;;;;;;3.95;3.55;;;;;;;26.54;54.43;101039.09;4994377;28;20058;-74
2022/08/29 03:09:15;;;;;;;5.15;3.53;;;;;;;26.53;54.39;101051.78;4995437;28;20073;-74
2022/08/29 03:11:43;;;;;;;4.07;3.58;;;;;;;26.53;54.54;101043.63;4995230;28;20038;-75
2022/08/29 03:14:10;;;;;;;3.92;3.53;;;;;;;26.52;54.33;101050.09;4994965;28;20047;-74
2022/08/29 03:16:37;;;;;;;3.58;3.22;;;;;;;26.51;54.39;101045.69;4996095;28;20471;-74
2022/08/29 03:19:05;;;;;;;3.72;3.42;;;;;;;26.51;54.34;101048.41;4994942;28;20077;-74
2022/08/29 03:21:32;;;;;;;3.47;3.13;;;;;;;26.51;54.04;101045.69;4995076;28;20050;-75
2022/08/29 03:24:00;;;;;;;3.80;3.03;;;;;;;26.50;54.16;101052.16;5002517;28;20049;-75
2022/08/29 03:26:27;;;;;;;4.68;2.92;;;;;;;26.51;54.19;101047.56;5014551;28;20042;-75
2022/08/29 03:28:54;;;;;;;4.68;3.65;;;;;;;26.50;54.16;101038.56;5014519;28;20052;-74
2022/08/29 03:31:21;;;;;;;4.63;3.70;;;;;;;26.50;54.15;101045.88;5013911;28;20397;-74
2022/08/29 03:33:49;;;;;;;4.28;3.10;;;;;;;26.51;54.29;101042.13;5014005;28;20489;-74
2022/08/29 03:36:17;;;;;;;4.32;3.53;;;;;;;26.49;54.47;101036.88;5014599;28;20409;-74
2022/08/29 03:38:45;;;;;;;4.38;3.60;;;;;;;26.50;54.46;101041.28;5014120;28;20046;-74
2022/08/29 03:41:24;;;;;;;5.55;4.22;;;;;;;26.49;53.94;101044.16;5014060;28;20044;-74
2022/08/29 03:43:57;;;;;;;6.20;3.78;;;;;;;26.48;53.48;101048.75;5012995;28;20061;-73
2022/08/29 03:46:26;;;;;;;4.18;3.72;;;;;;;26.48;53.47;101050.63;5013874;28;20076;-74
2022/08/29 03:48:53;;;;;;;4.07;3.58;;;;;;;26.47;53.76;101044.34;5013910;28;20046;-74
2022/08/29 03:51:21;;;;;;;4.63;3.17;;;;;;;26.47;53.36;101040.78;5014134;28;20053;-74
2022/08/29 03:53:51;;;;;;;5.07;3.70;;;;;;;26.47;53.50;101036.22;5013871;28;20046;-74
2022/08/29 03:56:19;;;;;;;4.65;3.10;;;;;;;26.46;53.57;101045.38;5014028;28;20065;-74
2022/08/29 03:58:47;;;;;;;5.97;3.97;;;;;;;26.47;53.58;101048.94;5013829;28;20049;-74
2022/08/29 04:01:25;;;;;;;6.32;4.47;;;;;;;26.46;53.33;101042.66;5013854;28;20042;-74
2022/08/29 04:03:54;;;;;;;3.47;3.17;;;;;;;26.46;53.40;101050.81;5013694;28;20050;-74
2022/08/29 04:06:23;;;;;;;3.72;3.40;;;;;;;26.47;53.72;101048.94;5013089;28;20046;-74
2022/08/29 04:08:51;;;;;;;4.63;3.60;;;;;;;26.46;53.68;101061.66;5013333;28;20069;-74
2022/08/29 04:11:22;;;;;;;4.53;3.90;;;;;;;26.45;53.56;101059.09;5013399;28;20053;-73
2022/08/29 04:13:51;;;;;;;4.38;3.97;;;;;;;26.45;53.35;101059.94;5013680;28;20050;-74
2022/08/29 04:16:23;;;;;;;5.15;3.70;;;;;;;26.44;53.38;101060.09;5014254;28;20045;-73
2022/08/29 04:18:56;;;;;;;5.10;3.70;;;;;;;26.44;52.97;101065.53;5014750;28;20106;-74
2022/08/29 04:21:24;;;;;;;6.22;3.47;;;;;;;26.43;52.95;101061.97;5014447;28;20046;-74
2022/08/29 04:23:53;;;;;;;3.58;3.28;;;;;;;26.43;53.30;101067.41;5009954;28;20398;-74
2022/08/29 04:26:21;;;;;;;3.95;3.28;;;;;;;26.44;53.18;101069.09;4994231;28;20054;-74
2022/08/29 04:29:06;;;;;;;4.07;3.33;;;;;;;26.44;53.00;101068.25;4999089;28;20056;-74
2022/08/29 04:31:35;;;;;;;4.72;3.60;;;;;;;26.44;53.14;101076.38;5012247;28;20355;-74
2022/08/29 04:34:05;;;;;;;5.03;3.83;;;;;;;26.42;52.94;101070.31;5013322;28;20045;-74
2022/08/29 04:36:34;;;;;;;5.60;3.80;;;;;;;26.41;53.01;101069.44;5013843;28;20057;-74
2022/08/29 04:39:02;;;;;;;3.50;3.20;;;;;;;26.41;53.18;101074.84;5013208;28;20053;-74
2022/08/29 04:41:29;;;;;;;4.43;3.42;;;;;;;26.42;53.30;101082.00;5012856;28;20042;-74
2022/08/29 04:44:00;;;;;;;5.05;3.97;;;;;;;26.41;53.14;101085.72;5012711;28;20050;-74
2022/08/29 04:46:27;;;;;;;4.80;4.03;;;;;;;26.41;52.99;101082.16;5013074;28;20053;-74
2022/08/29 04:48:55;;;;;;;4.47;3.58;;;;;;;26.38;52.95;101091.50;5012929;28;20069;-74
2022/08/29 04:51:28;;;;;;;;;;;;;;;26.36;53.18;101097.09;5013716;28;20041;-74
2022/08/29 04:53:55;;;;;;;5.22;4.10;;;;;;;26.34;52.99;101092.88;5013704;28;19944;-74
2022/08/29 04:56:23;;;;;;;4.10;3.70;;;;;;;26.34;53.18;101093.72;5013635;28;20394;-74
2022/08/29 04:58:50;;;;;;;4.68;3.95;;;;;;;26.34;53.12;101095.59;5012790;28;20050;-74
2022/08/29 05:01:20;;;;;;;4.35;3.63;;;;;;;26.34;53.14;101090.16;5013027;28;20053;-74
2022/08/29 05:03:49;;;;;;;4.32;3.92;;;;;;;26.34;52.80;101096.44;5012714;28;20056;-74
2022/08/29 05:06:18;;;;;;;4.25;3.75;;;;;;;26.33;52.85;101085.72;5013350;28;20053;-74
2022/08/29 05:08:48;;;;;;;4.30;3.60;;;;;;;26.31;52.94;101083.19;4992681;28;20057;-74
2022/08/29 05:11:28;;;;;;;3.50;3.20;;;;;;;26.32;53.03;101086.75;4993486;28;20512;-74
2022/08/29 05:13:56;;;;;;;4.55;3.63;;;;;;;26.33;53.34;101092.03;4992344;28;20043;-74
2022/08/29 05:16:24;;;;;;;4.57;3.22;;;;;;;26.33;53.09;101094.75;4993862;28;20057;-74
2022/08/29 05:18:51;;;;;;;5.35;3.83;;;;;;;26.33;53.21;101096.59;4993228;28;20402;-74
2022/08/29 05:21:31;;;;;;;3.58;3.20;;;;;;;26.34;53.14;101114.59;4993253;28;20046;-74
2022/08/29 05:24:04;;;;;;;4.18;3.60;;;;;;;26.33;53.04;101110.16;5000826;28;20042;-74
2022/08/29 05:26:35;;;;;;;4.50;3.92;;;;;;;26.33;53.29;101104.72;5012930;28;20041;-74
2022/08/29 05:29:06;;;;;;;3.80;3.35;;;;;;;26.32;53.22;101117.47;5012739;28;20050;-74
2022/08/29 05:31:36;;;;;;;5.05;4.15;;;;;;;26.32;53.13;101116.63;5013349;28;20046;-74
2022/08/29 05:34:04;;;;;;;4.68;4.22;;;;;;;26.30;53.29;101116.81;5012519;28;20038;-74
2022/08/29 05:36:51;;;;;;;5.68;4.20;;;;;;;26.30;53.19;101122.22;5011409;28;20058;-74
2022/08/29 05:39:18;;;;;;;3.92;3.53;;;;;;;26.31;53.31;101126.63;5014628;28;20061;-74
2022/08/29 05:41:46;;;;;;;4.90;3.67;;;;;;;26.30;53.46;101124.09;5016694;28;20049;-74
2022/08/29 05:44:13;;;;;;;5.22;4.28;;;;;;;26.30;53.35;101119.50;5016296;28;20512;-74
2022/08/29 05:46:41;;;;;;;4.20;3.80;;;;;;;26.29;53.58;101122.38;5016365;28;20481;-74
2022/08/29 05:49:08;;;;;;;4.88;3.83;;;;;;;26.26;53.71;101120.88;5016560;28;20057;-74
2022/08/29 05:51:36;;;;;;;5.25;3.75;;;;;;;26.26;53.80;101122.75;5015258;28;20398;-74
2022/08/29 05:54:06;;;;;;;5.57;4.30;;;;;;;26.24;53.68;101125.59;5016098;28;20417;-74
2022/08/29 05:56:34;;;;;;;5.00;4.05;;;;;;;26.23;53.72;101123.91;5016067;28;20046;-75
2022/08/29 05:59:01;;;;;;;4.43;3.83;;;;;;;26.24;53.79;101128.31;5016227;28;20041;-74
2022/08/29 06:01:32;;;;;;;4.78;4.03;;;;;;;26.27;53.77;101128.00;5015989;28;20378;-74
2022/08/29 06:04:00;;;;;;;3.85;3.35;;;;;;;26.28;53.94;101126.97;5015077;28;20061;-75
2022/08/29 06:06:28;;;;;;;4.05;3.75;;;;;;;26.28;53.88;101126.13;5016099;28;20404;-74
2022/08/29 06:08:58;;;;;;;4.60;4.18;;;;;;;26.29;53.96;101131.41;5014770;28;20401;-74
2022/08/29 06:11:28;;;;;;;5.63;3.85;;;;;;;26.31;54.11;101128.50;5015643;28;20053;-74
2022/08/29 06:13:56;;;;;;;4.80;3.80;;;;;;;26.31;54.34;101128.50;5015850;28;20054;-74
2022/08/29 06:16:25;;;;;;;4.30;3.80;;;;;;;26.33;54.04;101132.75;5016657;28;20125;-76
2022/08/29 06:18:53;;;;;;;4.53;3.70;;;;;;;26.33;53.75;101131.88;5016102;28;20041;-74
2022/08/29 06:21:21;;;;;;;3.90;3.40;;;;;;;26.32;53.57;101135.63;5016088;28;20068;-74
2022/08/29 06:23:49;;;;;;;4.03;3.55;;;;;;;26.33;53.42;101134.59;5015369;28;20061;-74
2022/08/29 06:26:18;;;;;;;5.47;3.45;;;;;;;26.33;53.56;101142.72;5015568;28;20057;-75
2022/08/29 06:28:46;;;;;;;4.78;3.58;;;;;;;26.33;53.71;101142.72;5015965;28;20401;-74
2022/08/29 06:31:20;;;;;;;5.80;3.53;;;;;;;26.33;53.47;101142.72;4999580;28;20054;-74
2022/08/29 06:33:53;;;;;;;5.25;4.00;;;;;;;26.32;53.48;101139.19;4995704;28;20426;-74
2022/08/29 06:36:21;;;;;;;5.10;3.83;;;;;;;26.33;53.46;101154.47;4996108;28;20093;-74
2022/08/29 06:38:49;;;;;;;5.00;4.05;;;;;;;26.33;53.56;101146.31;4995779;28;20510;-73
2022/08/29 06:41:17;;;;;;;4.35;3.63;;;;;;;26.33;53.79;101143.59;5003754;28;20045;-73
2022/08/29 06:43:44;;;;;;;5.55;4.13;;;;;;;26.36;54.07;101147.81;5030697;28;20049;-74
2022/08/29 06:46:28;;;;;;;4.35;3.50;;;;;;;26.36;53.88;101150.53;5016291;28;20057;-74
2022/08/29 06:48:57;;;;;;;4.47;4.07;;;;;;;26.35;54.00;101151.56;5015148;28;20045;-74
2022/08/29 06:51:26;;;;;;;5.70;3.72;;;;;;;26.33;53.74;101157.19;5015369;28;20042;-73
2022/08/29 06:53:54;;;;;;;4.70;3.45;;;;;;;26.32;53.67;101160.88;5014809;28;20045;-73
2022/08/29 06:56:22;;;;;;;4.25;3.58;;;;;;;26.30;53.87;101165.66;5015530;28;20481;-73
2022/08/29 06:58:51;;;;;;;5.05;3.60;;;;;;;26.29;53.80;101168.53;5015408;28;20053;-73
2022/08/29 07:01:22;;;;;;;5.13;3.22;;;;;;;26.26;53.79;101168.88;5015527;28;20056;-73
2022/08/29 07:03:51;;;;;;;5.10;3.95;;;;;;;26.22;53.49;101175.66;5014928;28;20046;-73
2022/08/29 07:06:19;;;;;;;5.47;3.28;;;;;;;26.20;53.73;101169.53;5015115;28;20058;-72
2022/08/29 07:08:47;;;;;;;4.35;3.00;;;;;;;26.19;53.68;101179.56;5015040;28;20517;-72
2022/08/29 07:11:25;;;;;;;4.85;3.20;;;;;;;26.18;53.49;101179.72;5015062;28;20060;-72
2022/08/29 07:13:57;;;;;;;6.68;3.45;;;;;;;26.15;53.44;101180.91;5015213;28;20053;-72
2022/08/29 07:16:24;;;;;;;8.13;3.60;;;;;;;26.11;53.68;101180.38;5014852;28;20525;-74
2022/08/29 07:18:52;;;;;;;6.47;3.38;;;;;;;26.10;53.85;101184.13;5014976;28;20052;-73
2022/08/29 07:21:22;;;;;;;7.60;4.15;;;;;;;26.08;54.13;101182.59;5015198;28;20060;-73
2022/08/29 07:23:52;;;;;;;7.53;3.95;;;;;;;26.03;54.68;101183.09;5013814;28;20057;-73
2022/08/29 07:26:23;;;;;;;6.80;4.43;;;;;;;26.00;55.09;101185.28;5014686;28;20077;-71
2022/08/29 07:28:53;;;;;;;5.30;4.60;;;;;;;25.97;55.20;101183.78;5014682;28;20504;-71
2022/08/29 07:31:25;;;;;;;6.18;4.25;;;;;;;25.98;55.35;101188.19;5013634;28;20050;-70
2022/08/29 07:34:00;;;;;;;6.22;4.43;;;;;;;25.97;55.37;101183.78;5011654;28;20046;-71
2022/08/29 07:36:33;;;;;;;10.60;5.13;;;;;;;25.97;55.46;101185.63;5014222;28;20064;-71
2022/08/29 07:39:07;;;;;;;6.18;4.68;;;;;;;25.96;55.43;101186.66;4999773;28;20057;-70
2022/08/29 07:41:37;;;;;;;7.45;4.70;;;;;;;25.96;55.55;101189.34;4978413;28;20068;-71
2022/08/29 07:44:06;;;;;;;4.15;3.75;;;;;;;25.96;55.64;101195.63;4994884;28;20042;-71
2022/08/29 07:46:33;;;;;;;6.45;4.72;;;;;;;25.97;55.73;101188.34;4993544;28;20054;-71
2022/08/29 07:49:02;;;;;;;6.53;4.47;;;;;;;25.98;55.55;101190.91;4994601;28;20053;-71
2022/08/29 07:51:29;;;;;;;7.80;4.40;;;;;;;25.98;55.69;101188.19;4993347;28;20058;-70
2022/08/29 07:53:57;;;;;;;6.05;4.47;;;;;;;25.98;55.92;101193.63;4995005;28;20394;-71
2022/08/29 07:56:30;;;;;;;10.15;4.80;;;;;;;26.00;56.11;101191.56;4994712;28;20046;-71
2022/08/29 07:59:05;;;;;;;6.03;4.55;;;;;;;26.01;56.25;101192.41;4994683;28;20057;-71
2022/08/29 08:01:32;;;;;;;7.10;4.13;;;;;;;26.02;56.02;101192.25;4993406;28;20053;-71
2022/08/29 08:04:00;;;;;;;6.18;5.35;;;;;;;26.04;56.14;101189.38;4994366;28;20057;-71
2022/08/29 08:06:27;;;;;;;6.65;5.25;;;;;;;26.01;56.09;101193.28;4994315;28;20402;-71
2022/08/29 08:08:56;;;;;;;6.80;6.18;;;;;;;26.01;56.20;101197.84;4994289;28;20054;-71
2022/08/29 08:11:25;;;;;;;7.88;5.72;;;;;;;25.99;56.37;101191.75;4994450;28;20426;-71
2022/08/29 08:13:53;;;;;;;6.03;5.10;;;;;;;25.99;56.71;101200.72;4994513;28;20045;-71
2022/08/29 08:16:23;;;;;;;8.27;6.13;;;;;;;25.98;56.93;101190.91;4994715;28;20050;-71
2022/08/29 08:18:52;;;;;;;7.45;5.80;;;;;;;25.99;57.15;101200.72;4993830;28;20057;-72
2022/08/29 08:21:19;;;;;;;6.10;5.50;;;;;;;26.00;57.15;101197.00;4994089;28;20434;-71
2022/08/29 08:23:47;;;;;;;6.65;5.90;;;;;;;26.01;57.66;101204.13;4994054;28;20046;-71
2022/08/29 08:26:15;;;;;;;7.28;5.25;;;;;;;26.03;57.30;101201.25;4994106;28;20061;-71
2022/08/29 08:28:45;;;;;;;5.47;4.97;;;;;;;26.05;57.34;101205.50;4994107;28;20043;-71
2022/08/29 08:31:19;;;;;;;9.10;6.10;;;;;;;26.06;57.27;101200.91;4993800;28;20042;-71
2022/08/29 08:33:47;;;;;;;9.60;5.13;;;;;;;26.07;57.22;101205.31;4993768;28;20042;-71
2022/08/29 08:36:18;;;;;;;6.85;5.88;;;;;;;26.08;57.05;101210.56;4993860;28;20050;-72
2022/08/29 08:38:46;;;;;;;6.80;6.10;;;;;;;26.10;57.08;101211.25;4993993;28;20054;-72
2022/08/29 08:41:17;;;;;;;6.72;5.55;;;;;;;26.08;56.88;101210.56;4994031;28;20509;-71
2022/08/29 08:43:52;;;;;;;10.90;5.30;;;;;;;26.10;56.98;101218.56;4994327;28;20047;-72
2022/08/29 08:46:46;;;;;;;8.02;6.05;;;;;;;26.10;56.77;101219.41;4993720;28;20046;-72
2022/08/29 08:49:32;;;;;;;8.27;5.60;;;;;;;26.10;56.84;101219.41;4993571;28;20482;-72
2022/08/29 08:52:09;;;;;;;6.22;5.63;;;;;;;26.11;56.73;101217.53;4993840;28;20050;-72
2022/08/29 08:54:47;;;;;;;8.60;5.35;;;;;;;26.11;57.06;101209.41;4993919;28;20041;-72
2022/08/29 08:57:15;;;;;;;8.48;4.75;;;;;;;26.12;56.88;101211.09;4992846;28;20065;-72
2022/08/29 08:59:45;;;;;;;6.25;5.65;;;;;;;26.13;57.15;101213.66;4993734;28;20054;-71
2022/08/29 09:02:33;;;;;;;7.97;5.85;;;;;;;26.14;57.15;101209.06;5009860;28;20057;-71
2022/08/29 09:05:31;;;;;;;6.55;4.78;;;;;;;26.16;57.03;101211.59;5012839;28;20054;-71
2022/08/29 09:08:13;;;;;;;7.05;5.13;;;;;;;26.18;57.09;101215.00;5013074;28;20068;-72
2022/08/29 09:11:05;;;;;;;7.15;6.45;;;;;;;26.19;57.47;101211.28;5013100;28;20143;-72
2022/08/29 09:13:37;;;;;;;6.32;5.72;;;;;;;26.19;57.47;101211.28;5016169;28;20120;-71
2022/08/29 09:16:16;;;;;;;7.28;5.53;;;;;;;26.19;57.43;101206.69;5016090;28;20050;-72
2022/08/29 09:18:43;;;;;;;9.63;6.35;;;;;;;26.20;57.31;101216.53;5017276;28;20409;-72
2022/08/29 09:21:22;;;;;;;6.90;5.40;;;;;;;26.23;56.86;101209.91;5016794;28;20049;-72
2022/08/29 09:24:39;;;;;;;6.25;4.13;;;;;;;26.25;56.67;101203.31;5016872;28;20049;-72
2022/08/29 09:27:16;;;;;;;5.32;4.50;;;;;;;26.27;56.67;101208.56;5014608;28;20061;-71
2022/08/29 09:29:46;;;;;;;5.93;4.50;;;;;;;26.29;56.79;101198.38;5014395;28;20060;-71
2022/08/29 09:32:15;;;;;;;5.53;4.70;;;;;;;26.31;56.62;101197.19;5014658;28;20506;-71
2022/08/29 09:34:50;;;;;;;4.40;4.00;;;;;;;26.33;56.38;101197.03;5014653;28;20049;-72
2022/08/29 09:37:35;;;;;;;6.32;4.43;;;;;;;26.35;56.27;101195.00;5014275;28;20064;-72
2022/08/29 09:40:09;;;;;;;5.50;4.63;;;;;;;26.36;56.66;101199.41;5014448;28;20054;-72
2022/08/29 09:42:41;;;;;;;7.28;5.75;;;;;;;26.37;57.43;101199.25;5014747;28;20050;-72
2022/08/29 09:45:18;;;;;;;6.13;5.30;;;;;;;26.37;56.78;101201.09;5014605;28;20057;-72
2022/08/29 09:47:46;;;;;;;5.00;4.45;;;;;;;26.38;58.16;101205.53;5014844;28;20056;-71
2022/08/29 09:50:16;;;;;;;5.72;4.68;;;;;;;26.38;57.63;101200.94;5014180;28;20104;-71
2022/08/29 09:52:55;;;;;;;6.25;4.90;;;;;;;26.38;57.69;101198.22;5014653;28;20053;-71
2022/08/29 09:55:35;;;;;;;6.90;5.15;;;;;;;26.39;58.86;101191.78;5014503;28;20049;-71
2022/08/29 09:58:02;;;;;;;5.93;5.18;;;;;;;26.39;57.86;101194.50;4998424;28;20068;-72
2022/08/29 10:00:36;;;;;;;6.55;4.93;;;;;;;26.39;57.86;101190.94;5014349;28;20061;-72
2022/08/29 10:03:09;;;;;;;6.97;6.10;;;;;;;26.39;57.72;101202.63;5014356;28;20053;-72
2022/08/29 10:05:44;;;;;;;5.72;4.97;;;;;;;26.40;58.61;101203.47;5016170;28;20106;-72
2022/08/29 10:08:34;;;;;;;11.07;6.13;;;;;;;26.39;58.18;101197.19;5016353;28;20046;-72
2022/08/29 10:11:07;;;;;;;9.90;6.50;;;;;;;26.41;57.98;101198.88;5016268;28;20041;-71
2022/08/29 10:13:35;;;;;;;7.57;6.75;;;;;;;26.41;57.37;101205.16;5015843;28;20042;-72
2022/08/29 10:16:26;;;;;;;7.18;6.35;;;;;;;26.41;57.81;101193.47;5016050;28;20401;-71
2022/08/29 10:19:00;;;;;;;7.80;6.28;;;;;;;26.42;57.77;101198.75;5016029;28;20042;-72
2022/08/29 10:21:30;;;;;;;10.88;6.28;;;;;;;26.43;57.96;101196.88;5016065;28;20041;-72
2022/08/29 10:24:28;;;;;;;5.93;5.10;;;;;;;26.44;58.54;101196.69;5016007;28;20042;-72
2022/08/29 10:27:22;;;;;;;7.50;5.72;;;;;;;26.45;58.13;101194.84;5016745;28;20060;-71
2022/08/29 10:30:10;;;;;;;9.68;5.32;;;;;;;26.44;57.99;101196.69;5015936;28;20409;-71
2022/08/29 10:32:50;;;;;;;6.60;6.00;;;;;;;26.45;58.21;101194.84;5016070;28;20054;-71
2022/08/29 10:35:20;;;;;;;9.07;5.45;;;;;;;26.46;57.99;101197.41;5016048;28;20049;-71
2022/08/29 10:38:17;;;;;;;6.93;5.45;;;;;;;26.46;57.80;101186.56;5016644;28;20052;-71
2022/08/29 10:40:49;;;;;;;6.75;6.05;;;;;;;26.47;59.01;101188.25;5015936;28;20504;-71
2022/08/29 10:43:40;;;;;;;5.90;5.30;;;;;;;26.48;58.92;101183.66;5015304;28;20041;-71
2022/08/29 10:46:10;;;;;;;7.18;6.38;;;;;;;26.49;58.55;101177.19;5015388;28;20048;-71
2022/08/29 10:48:46;;;;;;;7.53;6.40;;;;;;;26.50;59.79;101177.06;5015834;28;20061;-72
2022/08/29 10:51:17;;;;;;;6.55;5.90;;;;;;;26.51;59.15;101176.03;5014183;28;20053;-72
2022/08/29 10:53:51;;;;;;;5.43;4.90;;;;;;;26.51;58.42;101178.72;5015934;28;20054;-72
2022/08/29 10:56:23;;;;;;;7.70;5.88;;;;;;;26.52;58.52;101180.44;5015344;28;20057;-73
2022/08/29 10:58:50;;;;;;;7.90;6.00;;;;;;;26.53;59.45;101176.69;5015394;28;20401;-73
2022/08/29 11:01:24;;;;;;;8.95;7.18;;;;;;;26.60;57.98;101174.13;5015066;28;20109;-72
2022/08/29 11:04:17;;;;;;;6.47;5.88;;;;;;;26.63;57.79;101173.81;5016235;28;20037;-73
2022/08/29 11:07:18;;;;;;;7.25;6.55;;;;;;;26.64;57.77;101170.06;5015876;28;20054;-73
2022/08/29 11:09:51;;;;;;;7.38;6.53;;;;;;;26.63;57.64;101171.09;5015669;28;20053;-73
2022/08/29 11:12:43;;;;;;;7.85;6.18;;;;;;;26.63;58.64;101163.78;5015292;28;20057;-72
2022/08/29 11:15:20;;;;;;;6.50;5.90;;;;;;;26.61;58.02;101157.66;5014062;28;20046;-72
2022/08/29 11:17:57;;;;;;;7.20;6.20;;;;;;;26.62;57.81;101156.66;5014840;28;20295;-74
2022/08/29 11:20:35;;;;;;;7.10;5.93;;;;;;;26.61;57.30;101152.22;5014904;28;20046;-72
2022/08/29 11:23:11;;;;;;;6.47;5.88;;;;;;;26.61;57.45;101149.50;5014752;28;20053;-73
2022/08/29 11:25:42;;;;;;;7.82;6.00;;;;;;;26.62;57.29;101153.94;5013180;28;20045;-72
2022/08/29 11:28:12;;;;;;;6.28;5.68;;;;;;;26.62;58.52;101151.25;5013845;28;20053;-73
2022/08/29 11:30:54;;;;;;;6.65;5.75;;;;;;;26.62;58.59;101142.25;5013785;28;20050;-72
2022/08/29 11:33:25;;;;;;;5.45;4.95;;;;;;;26.61;58.29;101141.38;5014426;28;20056;-72
2022/08/29 11:36:16;;;;;;;7.30;6.35;;;;;;;26.63;57.41;101139.34;5013365;28;20501;-72
2022/08/29 11:38:52;;;;;;;5.45;4.88;;;;;;;26.68;57.45;101137.97;5013870;28;20057;-72
2022/08/29 11:41:27;;;;;;;5.85;5.35;;;;;;;26.70;57.90;101138.63;5013222;28;20048;-72
2022/08/29 11:44:05;;;;;;;5.55;5.05;;;;;;;26.70;57.83;101128.66;5014386;28;20462;-72
2022/08/29 11:46:51;;;;;;;5.93;5.43;;;;;;;26.70;57.49;101135.91;5014709;28;20489;-72
2022/08/29 11:49:44;;;;;;;5.55;5.05;;;;;;;26.70;58.46;101125.06;5014391;28;20056;-72
2022/08/29 11:52:15;;;;;;;6.68;5.45;;;;;;;26.71;58.03;101124.91;5014438;28;20049;-72